Time;durP1;ratioP1;P1;durP2;ratioP2;P2;SDS_P1;SDS_P2;PMS_P1;PMS_P2;Temp;Humidity;BMP_temperature;BMP_pressure;BME280_temperature;BME280_humidity;BME280_pressure;Samples;Min_cycle;Max_cycle;Signal;HPM_P1;HPM_P2
2022/09/20 00:01:19;;;;;;;10.80;2.50;;;;;;;16.00;59.43;102173.03;4871726;28;123809;-70
2022/09/20 00:03:55;;;;;;;8.73;2.33;;;;;;;16.00;59.58;102162.34;4865726;28;120104;-69
2022/09/20 00:06:25;;;;;;;10.07;2.70;;;;;;;15.99;59.46;102160.59;4870920;28;118599;-69
2022/09/20 00:08:53;;;;;;;10.70;2.47;;;;;;;16.00;59.59;102162.34;4884825;28;123280;-70
2022/09/20 00:11:25;;;;;;;6.32;2.55;;;;;;;16.01;59.75;102164.09;4874383;28;125004;-69
2022/09/20 00:13:54;;;;;;;9.65;2.90;;;;;;;16.01;59.66;102169.44;4872071;28;119428;-70
2022/09/20 00:16:26;;;;;;;10.63;2.70;;;;;;;16.01;59.54;102164.09;4870087;28;118821;-69
2022/09/20 00:18:55;;;;;;;10.45;2.80;;;;;;;15.98;59.50;102166.91;4872608;28;123789;-70
2022/09/20 00:21:26;;;;;;;5.57;2.30;;;;;;;15.97;59.62;102167.81;4872666;28;124353;-69
2022/09/20 00:23:53;;;;;;;7.03;2.45;;;;;;;15.96;59.67;102166.97;4869563;28;119275;-69
2022/09/20 00:26:21;;;;;;;6.45;2.30;;;;;;;15.94;59.57;102173.34;4868408;28;119935;-69
2022/09/20 00:28:49;;;;;;;11.48;2.50;;;;;;;15.92;59.68;102175.22;4870280;28;123927;-69
2022/09/20 00:31:17;;;;;;;8.52;2.72;;;;;;;15.91;59.74;102173.47;4885618;28;124092;-69
2022/09/20 00:36:30;;;;;;;6.93;2.20;;;;;;;15.87;59.74;102182.56;4869538;28;119688;-68
2022/09/20 00:38:59;;;;;;;9.82;2.28;;;;;;;15.86;59.90;102176.34;4870016;28;123955;-70
2022/09/20 00:41:28;;;;;;;10.77;2.40;;;;;;;15.84;59.82;102186.25;4870138;28;122893;-69
2022/09/20 00:43:55;;;;;;;7.43;2.25;;;;;;;15.84;59.92;102178.25;4870161;28;119964;-70
2022/09/20 00:46:28;;;;;;;8.00;2.30;;;;;;;15.85;59.89;102179.09;4870926;28;119307;-69
2022/09/20 00:49:04;;;;;;;6.97;2.35;;;;;;;15.83;60.07;102175.63;4866841;28;124230;-70
2022/09/20 00:51:36;;;;;;;8.88;2.30;;;;;;;15.84;59.93;102166.66;4865153;28;123732;-69
2022/09/20 00:54:07;;;;;;;8.38;2.40;;;;;;;15.82;59.96;102168.53;4867991;28;119553;-70
2022/09/20 00:56:38;;;;;;;8.40;2.47;;;;;;;15.81;60.03;102161.47;4866365;28;118991;-69
2022/09/20 00:59:31;;;;;;;10.68;2.50;;;;;;;15.81;59.79;102166.81;4870025;28;124577;-70
2022/09/20 01:02:28;;;;;;;8.90;2.47;;;;;;;15.79;59.90;102163.34;4870792;28;125057;-69
2022/09/20 01:04:56;;;;;;;10.75;2.72;;;;;;;15.79;60.09;102166.03;4880306;28;119956;-69
2022/09/20 01:07:24;;;;;;;8.20;2.35;;;;;;;15.79;59.89;102163.34;4876171;28;118321;-70
2022/09/20 01:09:52;;;;;;;7.32;2.20;;;;;;;15.79;60.01;102163.34;4869770;28;124071;-70
2022/09/20 01:12:22;;;;;;;6.65;2.45;;;;;;;15.79;59.97;102179.38;4869669;28;124825;-70
2022/09/20 01:14:51;;;;;;;9.60;2.75;;;;;;;15.75;59.92;102176.84;4867117;28;120982;-69
2022/09/20 01:17:21;;;;;;;10.07;2.83;;;;;;;15.72;60.12;102174.25;4868250;28;120486;-70
2022/09/20 01:20:10;;;;;;;7.40;3.00;;;;;;;15.69;60.20;102171.75;4866224;28;124013;-69
2022/09/20 01:22:58;;;;;;;9.80;2.85;;;;;;;15.65;60.06;102172.84;4868435;28;123147;-70
2022/09/20 01:25:28;;;;;;;8.35;3.10;;;;;;;15.63;60.14;102185.34;4869017;28;119394;-69
2022/09/20 01:27:55;;;;;;;13.43;3.78;;;;;;;15.60;60.30;102174.84;4864628;28;119590;-69
2022/09/20 01:30:27;;;;;;;11.43;3.40;;;;;;;15.58;60.22;102182.06;4871378;28;124292;-69
2022/09/20 01:32:57;;;;;;;10.82;3.58;;;;;;;15.56;60.36;102183.94;4865700;28;124233;-69
2022/09/20 01:35:27;;;;;;;6.63;3.40;;;;;;;15.56;60.34;102178.59;4868135;28;119580;-70
2022/09/20 01:38:04;;;;;;;7.78;3.47;;;;;;;15.54;60.47;102175.13;4868997;28;119029;-70
2022/09/20 01:41:08;;;;;;;8.35;3.17;;;;;;;15.50;60.32;102174.38;4864130;28;124015;-70
2022/09/20 01:43:51;;;;;;;9.18;3.70;;;;;;;15.50;60.43;102178.84;4869989;28;124684;-69
2022/09/20 01:46:33;;;;;;;7.65;3.92;;;;;;;15.48;60.70;102170.03;4882874;28;118758;-69
2022/09/20 01:49:21;;;;;;;12.48;4.10;;;;;;;15.47;60.62;102168.31;4871907;28;119219;-70
2022/09/20 01:52:28;;;;;;;13.68;3.95;;;;;;;15.46;60.67;102172.75;4867621;28;125709;-70
2022/09/20 01:55:35;;;;;;;8.43;3.78;;;;;;;15.48;60.75;102175.38;4869426;28;124231;-70
2022/09/20 01:58:17;;;;;;;7.90;3.75;;;;;;;15.47;60.78;102170.97;4868459;28;119592;-69
2022/09/20 02:01:16;;;;;;;10.38;3.80;;;;;;;15.48;60.92;102172.69;4867164;28;120266;-69
2022/09/20 02:04:22;;;;;;;8.23;3.75;;;;;;;15.47;60.76;102168.31;4866468;28;124703;-69
2022/09/20 02:07:01;;;;;;;;;;;;;;;15.46;60.50;102179.91;4882970;28;123893;-69
2022/09/20 02:10:02;;;;;;;10.52;3.85;;;;;;;15.46;60.62;102171.91;4865626;28;120944;-69
2022/09/20 02:12:51;;;;;;;11.00;3.78;;;;;;;15.45;60.66;102179.06;4871024;28;119525;-68
2022/09/20 02:15:42;;;;;;;13.13;3.92;;;;;;;15.45;60.75;102180.88;4866966;28;123163;-70
2022/09/20 02:18:36;;;;;;;10.07;3.55;;;;;;;15.45;60.85;102183.53;4866995;28;124874;-69
2022/09/20 02:21:28;;;;;;;8.23;3.85;;;;;;;15.44;60.82;102174.63;4865614;28;119382;-69
2022/09/20 02:24:33;;;;;;;8.60;3.80;;;;;;;15.43;60.70;102180.06;4868999;28;119342;-69
2022/09/20 02:27:22;;;;;;;8.93;3.70;;;;;;;15.42;60.82;102175.66;4869795;28;124291;-69
2022/09/20 02:30:16;;;;;;;10.43;3.53;;;;;;;15.40;60.94;102183.72;4866136;28;123891;-70
2022/09/20 02:33:04;;;;;;;11.77;4.22;;;;;;;15.40;61.00;102164.16;4868080;28;119549;-69
2022/09/20 02:35:41;;;;;;;9.00;3.55;;;;;;;15.43;61.04;102169.38;4868873;28;119696;-69
2022/09/20 02:38:26;;;;;;;11.30;3.80;;;;;;;15.43;60.95;102164.06;4868006;28;124326;-69
2022/09/20 02:41:19;;;;;;;8.65;3.60;;;;;;;15.43;60.94;102159.56;4869349;28;124018;-70
2022/09/20 02:43:56;;;;;;;8.50;3.80;;;;;;;15.44;60.91;102160.44;4869702;28;120047;-69
2022/09/20 02:47:05;;;;;;;9.80;3.70;;;;;;;15.42;60.80;102154.28;4868658;28;118637;-69
2022/09/20 02:50:01;;;;;;;11.60;3.72;;;;;;;15.42;60.68;102159.63;4850949;28;124056;-69
2022/09/20 02:52:33;;;;;;;8.93;3.53;;;;;;;15.42;60.83;102159.63;4861170;28;123686;-70
2022/09/20 02:55:17;;;;;;;11.85;3.63;;;;;;;15.44;60.75;102157.75;4873803;28;118184;-70
2022/09/20 02:58:08;;;;;;;11.48;3.70;;;;;;;15.45;60.89;102164.84;4874920;28;119828;-69
2022/09/20 03:00:49;;;;;;;11.63;3.53;;;;;;;15.45;60.83;102159.50;4876491;28;97851;-70
2022/09/20 03:03:30;;;;;;;9.13;3.50;;;;;;;15.45;60.88;102165.69;4870389;28;124805;-69
2022/09/20 03:06:10;;;;;;;11.63;3.60;;;;;;;15.46;60.81;102166.56;4866551;28;120423;-69
2022/09/20 03:09:01;;;;;;;9.70;3.30;;;;;;;15.46;60.73;102171.91;4867011;28;120602;-70
2022/09/20 03:11:43;;;;;;;8.52;3.72;;;;;;;15.47;60.84;102168.31;4884792;28;123561;-69
2022/09/20 03:14:23;;;;;;;9.48;3.58;;;;;;;15.45;60.71;102165.69;4868533;28;123985;-70
2022/09/20 03:17:01;;;;;;;11.35;3.75;;;;;;;15.44;60.83;102163.09;4871308;28;119659;-69
2022/09/20 03:19:38;;;;;;;9.20;3.65;;;;;;;15.45;60.78;102164.84;4872289;28;117827;-69
2022/09/20 03:22:17;;;;;;;9.45;3.47;;;;;;;15.43;60.76;102174.72;4871145;28;124181;-69
2022/09/20 03:25:12;;;;;;;9.35;3.85;;;;;;;15.43;60.83;102166.72;4871128;28;123780;-70
2022/09/20 03:28:04;;;;;;;11.07;4.00;;;;;;;15.41;60.75;102171.22;4869138;28;119924;-70
2022/09/20 03:30:55;;;;;;;12.80;4.18;;;;;;;15.40;60.79;102169.50;4867831;28;119131;-70
2022/09/20 03:33:40;;;;;;;9.27;3.97;;;;;;;15.38;60.77;102173.09;4869003;28;124378;-70
2022/09/20 03:36:21;;;;;;;9.13;3.70;;;;;;;15.38;60.76;102165.09;4871821;28;123835;-69
2022/09/20 03:39:01;;;;;;;8.00;3.78;;;;;;;15.38;61.01;102170.44;4888576;28;118313;-69
2022/09/20 03:41:49;;;;;;;9.10;3.65;;;;;;;15.38;60.85;102174.91;4876984;28;118282;-69
2022/09/20 03:44:50;;;;;;;11.35;3.70;;;;;;;15.35;61.03;102165.25;4873186;28;123994;-69
2022/09/20 03:47:57;;;;;;;8.68;4.40;;;;;;;15.33;60.97;102167.13;4869176;28;124632;-69
2022/09/20 03:50:44;;;;;;;10.07;3.80;;;;;;;15.33;60.83;102177.78;4871378;28;120263;-70
2022/09/20 03:53:29;;;;;;;7.50;3.40;;;;;;;15.31;61.08;102171.66;4872375;28;118984;-69
2022/09/20 03:56:15;;;;;;;8.88;3.60;;;;;;;15.32;60.97;102175.19;4866151;28;123110;-69
2022/09/20 03:59:00;;;;;;;;;;;;;;;15.28;60.81;102174.44;4871460;28;123504;-69
2022/09/20 04:01:45;;;;;;;6.90;3.42;;;;;;;15.31;60.85;102174.34;4887165;28;120331;-69
2022/09/20 04:04:21;;;;;;;7.93;3.45;;;;;;;15.30;61.07;102172.59;4868332;28;119824;-69
2022/09/20 04:07:13;;;;;;;11.50;3.35;;;;;;;15.28;60.98;102169.13;4871055;28;124753;-69
2022/09/20 04:10:01;;;;;;;9.82;3.63;;;;;;;15.28;61.00;102173.59;4871086;28;124790;-69
2022/09/20 04:12:56;;;;;;;9.43;3.40;;;;;;;15.27;61.23;102177.19;4868264;28;119908;-69
2022/09/20 04:15:59;;;;;;;8.25;3.75;;;;;;;15.28;61.07;102169.13;4869444;28;119258;-69
2022/09/20 04:18:34;;;;;;;6.97;3.33;;;;;;;15.29;61.23;102176.16;4872794;28;124250;-69
2022/09/20 04:21:10;;;;;;;;;;;;;;;15.27;60.98;102175.38;4869596;28;124173;-69
2022/09/20 04:23:48;;;;;;;11.48;3.63;;;;;;;15.28;61.04;102174.44;4882599;28;120128;-69
2022/09/20 04:26:24;;;;;;;10.45;3.25;;;;;;;15.28;61.03;102174.44;4866672;28;120305;-69
2022/09/20 04:29:28;;;;;;;9.30;3.58;;;;;;;15.27;61.02;102172.69;4868389;28;124003;-69
2022/09/20 04:32:22;;;;;;;9.10;3.47;;;;;;;15.27;60.82;102171.84;4850784;28;123152;-70
2022/09/20 04:37:49;;;;;;;10.25;3.38;;;;;;;15.21;60.83;102167.63;4872281;28;119577;-70
2022/09/20 04:40:33;;;;;;;8.18;3.08;;;;;;;15.19;60.85;102174.84;4869985;28;123862;-70
2022/09/20 04:43:16;;;;;;;7.32;3.17;;;;;;;15.19;60.92;102174.84;4867724;28;123996;-69
2022/09/20 04:46:28;;;;;;;6.50;3.20;;;;;;;15.17;60.92;102182.06;4867517;28;119776;-69
2022/09/20 04:49:48;;;;;;;7.72;3.20;;;;;;;15.14;60.85;102183.06;4868206;28;119541;-69
2022/09/20 04:52:43;;;;;;;7.93;3.20;;;;;;;15.12;60.85;102184.03;4864935;28;124431;-69
2022/09/20 04:55:45;;;;;;;9.15;3.08;;;;;;;15.11;60.94;102187.66;4868286;28;124249;-69
2022/09/20 04:58:31;;;;;;;9.02;3.08;;;;;;;15.09;60.93;102184.19;4871011;28;120487;-69
2022/09/20 05:01:22;;;;;;;8.98;3.10;;;;;;;15.09;61.03;102189.53;4868680;28;119121;-70
2022/09/20 05:04:27;;;;;;;7.13;2.88;;;;;;;15.07;61.15;102191.38;4866587;28;124279;-69
2022/09/20 05:07:17;;;;;;;7.88;2.92;;;;;;;15.06;61.09;102184.31;4868332;28;123181;-69
2022/09/20 05:10:04;;;;;;;6.22;2.90;;;;;;;15.07;61.08;102196.72;4869126;28;119041;-70
2022/09/20 05:13:08;;;;;;;6.22;3.03;;;;;;;15.05;60.93;102194.13;4866879;28;118803;-69
2022/09/20 05:15:59;;;;;;;10.25;3.28;;;;;;;15.05;60.92;102190.56;4868449;28;123984;-69
2022/09/20 05:19:06;;;;;;;10.20;2.88;;;;;;;15.05;60.92;102193.25;4867628;28;124531;-69
2022/09/20 05:21:33;;;;;;;;;;;;;;;15.01;60.84;102197.81;4866463;28;119466;-69
2022/09/20 05:24:19;;;;;;;7.05;2.53;;;;;;;15.02;60.76;102196.06;4868329;28;118514;-69
2022/09/20 05:27:21;;;;;;;7.10;2.60;;;;;;;15.01;60.91;102191.63;4867228;28;125027;-69
2022/09/20 05:30:16;;;;;;;8.95;2.78;;;;;;;14.98;60.72;102190.84;4868241;28;124861;-69
2022/09/20 05:32:50;;;;;;;7.03;2.75;;;;;;;14.97;60.78;102191.78;4868220;28;120145;-69
2022/09/20 05:35:33;;;;;;;6.77;2.47;;;;;;;14.93;60.88;102200.81;4873848;28;119391;-69
2022/09/20 05:38:22;;;;;;;7.70;2.70;;;;;;;14.92;60.75;102204.44;4869801;28;123892;-69
2022/09/20 05:41:22;;;;;;;7.78;2.55;;;;;;;14.90;60.81;102211.63;4872935;28;123977;-69
2022/09/20 05:44:27;;;;;;;6.80;2.67;;;;;;;14.88;60.72;102213.50;4871967;28;119816;-70
2022/09/20 05:47:22;;;;;;;6.03;2.60;;;;;;;14.84;60.86;102219.88;4857380;28;119517;-71
2022/09/20 05:49:49;;;;;;;5.35;2.47;;;;;;;14.80;60.79;102204.94;4867851;28;124413;-71
2022/09/20 05:52:43;;;;;;;8.27;2.85;;;;;;;14.79;60.79;102224.56;4869491;28;123391;-71
2022/09/20 05:55:29;;;;;;;6.13;2.70;;;;;;;14.78;60.80;102217.47;4866712;28;120327;-71
2022/09/20 05:58:07;;;;;;;;;;;;;;;14.74;60.76;102223.84;4866936;28;120353;-71
2022/09/20 06:00:45;;;;;;;6.38;3.00;;;;;;;14.73;60.68;102216.78;4866724;28;123375;-71
2022/09/20 06:03:24;;;;;;;5.32;2.83;;;;;;;14.69;60.72;102218.72;4868014;28;122966;-72
2022/09/20 06:06:02;;;;;;;8.52;2.90;;;;;;;14.66;60.92;102223.31;4865644;28;119182;-71
2022/09/20 06:08:59;;;;;;;6.50;3.15;;;;;;;14.63;60.77;102231.41;4865888;28;119010;-71
2022/09/20 06:11:58;;;;;;;8.02;3.33;;;;;;;14.60;60.92;102224.41;4868637;28;124700;-71
2022/09/20 06:14:52;;;;;;;5.28;2.80;;;;;;;14.58;60.97;102232.47;4884002;28;123037;-71
2022/09/20 06:17:39;;;;;;;8.98;3.33;;;;;;;14.57;61.15;102244.06;4872024;28;119183;-71
2022/09/20 06:20:33;;;;;;;9.45;3.13;;;;;;;14.55;61.12;102243.22;4871169;28;119088;-71
2022/09/20 06:23:04;;;;;;;8.77;3.33;;;;;;;14.55;61.31;102243.22;4884472;28;124214;-71
2022/09/20 06:26:02;;;;;;;6.95;3.63;;;;;;;14.58;61.53;102236.94;4870699;28;124428;-71
2022/09/20 06:28:38;;;;;;;8.23;3.83;;;;;;;14.66;61.93;102231.31;4870000;28;119770;-71
2022/09/20 06:31:07;;;;;;;10.18;4.00;;;;;;;14.79;62.27;102229.88;4871615;28;119492;-71
2022/09/20 06:33:45;;;;;;;10.65;4.47;;;;;;;14.95;62.38;102227.44;4870156;28;123831;-71
2022/09/20 06:42:12;;;;;;;12.10;3.70;;;;;;;15.63;62.76;102241.44;4866591;28;119545;-71
2022/09/20 06:44:42;;;;;;;8.40;3.50;;;;;;;15.79;62.64;102246.16;4873665;28;123995;-71
2022/09/20 06:47:09;;;;;;;7.55;3.33;;;;;;;15.88;62.26;102237.72;4882655;28;124513;-71
2022/09/20 06:49:38;;;;;;;9.00;3.35;;;;;;;15.96;61.99;102243.59;4871067;28;120809;-71
2022/09/20 06:52:06;;;;;;;7.15;3.40;;;;;;;16.04;61.72;102235.22;4882157;28;120569;-71
2022/09/20 06:54:33;;;;;;;6.38;3.10;;;;;;;16.10;61.62;102232.28;4865452;28;124220;-71
2022/09/20 06:57:04;;;;;;;9.25;2.85;;;;;;;16.17;61.67;102248.91;4881837;28;123987;-73
2022/09/20 06:59:31;;;;;;;11.02;2.90;;;;;;;16.22;61.45;102241.53;4894420;28;119166;-71
2022/09/20 07:01:58;;;;;;;10.68;3.10;;;;;;;16.29;61.45;102237.63;4874257;28;119003;-71
2022/09/20 07:04:25;;;;;;;9.85;2.95;;;;;;;16.37;61.22;102243.50;4871301;28;123817;-71
2022/09/20 07:06:59;;;;;;;6.78;2.80;;;;;;;16.43;61.09;102245.88;4872068;28;124709;-71
2022/09/20 07:09:27;;;;;;;7.72;2.90;;;;;;;16.50;61.10;102247.31;4869853;28;119286;-71
2022/09/20 07:11:55;;;;;;;9.48;2.63;;;;;;;16.55;60.71;102250.63;4872183;28;119502;-71
2022/09/20 07:14:22;;;;;;;7.43;2.33;;;;;;;16.63;60.73;102252.06;4871572;28;123925;-71
2022/09/20 07:16:49;;;;;;;8.05;2.60;;;;;;;16.72;60.91;102256.97;4869702;28;123545;-71
2022/09/20 07:19:16;;;;;;;6.85;2.40;;;;;;;16.82;60.58;102255.66;4893033;28;119490;-71
2022/09/20 07:21:43;;;;;;;11.57;2.92;;;;;;;16.91;60.53;102249.84;4879570;28;119904;-71
2022/09/20 07:24:12;;;;;;;7.78;2.58;;;;;;;17.02;60.49;102259.13;4882605;28;123939;-71
2022/09/20 07:26:54;;;;;;;5.25;2.60;;;;;;;17.10;60.33;102256.94;4860269;28;124582;-72
2022/09/20 07:29:21;;;;;;;7.43;2.42;;;;;;;17.19;59.89;102260.97;4869124;28;119304;-72
2022/09/20 07:31:49;;;;;;;6.35;2.53;;;;;;;17.23;59.61;102263.41;4880736;28;118995;-72
2022/09/20 07:34:19;;;;;;;7.20;2.78;;;;;;;17.31;59.81;102261.22;4888510;28;123302;-72
2022/09/20 07:36:47;;;;;;;6.22;2.38;;;;;;;17.43;59.44;102264.22;4854404;28;123204;-72
2022/09/20 07:39:14;;;;;;;9.18;2.60;;;;;;;17.53;59.69;102270.84;4871733;28;120326;-71
2022/09/20 07:41:44;;;;;;;7.03;2.72;;;;;;;17.63;59.38;102266.75;4878080;28;120005;-72
2022/09/20 07:44:20;;;;;;;6.00;2.50;;;;;;;17.71;58.97;102274.38;4893169;28;124183;-71
2022/09/20 07:46:48;;;;;;;5.95;2.40;;;;;;;17.75;58.69;102270.59;4856425;28;124429;-71
2022/09/20 07:49:16;;;;;;;7.35;2.40;;;;;;;17.81;58.54;102269.41;4860306;28;118908;-71
2022/09/20 07:51:43;;;;;;;4.80;2.25;;;;;;;17.87;58.47;102269.09;4865806;28;118784;-71
2022/09/20 07:54:10;;;;;;;7.57;2.38;;;;;;;17.95;58.16;102272.25;4873730;28;125228;-72
2022/09/20 07:56:37;;;;;;;5.53;2.40;;;;;;;18.02;58.07;102267.41;4873060;28;124364;-71
2022/09/20 07:59:05;;;;;;;8.27;2.50;;;;;;;18.11;57.85;102276.78;4871983;28;120060;-72
2022/09/20 08:01:32;;;;;;;6.88;2.20;;;;;;;18.20;57.91;102276.28;4884717;28;119034;-72
2022/09/20 08:03:59;;;;;;;6.93;2.75;;;;;;;18.29;57.85;102276.66;4870991;28;124681;-71
2022/09/20 08:06:26;;;;;;;7.15;2.47;;;;;;;18.42;57.82;102276.84;4871280;28;124241;-71
2022/09/20 08:08:54;;;;;;;4.10;2.20;;;;;;;18.55;57.72;102276.16;4875962;28;119302;-72
2022/09/20 08:11:24;;;;;;;6.88;2.60;;;;;;;18.67;57.11;102273.66;4879053;28;119172;-71
2022/09/20 08:13:55;;;;;;;4.22;2.15;;;;;;;18.75;56.70;102278.59;4867938;28;124049;-71
2022/09/20 08:16:37;;;;;;;6.65;1.90;;;;;;;18.78;56.23;102273.06;4868647;28;124192;-71
2022/09/20 08:19:05;;;;;;;5.57;2.22;;;;;;;18.81;56.04;102272.88;4870685;28;120685;-72
2022/09/20 08:21:34;;;;;;;5.53;2.33;;;;;;;18.83;55.94;102265.63;4896627;28;119263;-71
2022/09/20 08:24:02;;;;;;;6.28;1.98;;;;;;;18.86;55.58;102276.19;4876785;28;124572;-71
2022/09/20 08:26:30;;;;;;;5.22;1.83;;;;;;;18.86;55.06;102286.94;4880220;28;124016;-71
2022/09/20 08:28:58;;;;;;;7.82;1.80;;;;;;;18.85;54.86;102290.59;4869131;28;120538;-71
2022/09/20 08:31:33;;;;;;;7.50;2.25;;;;;;;18.84;54.75;102288.84;4871162;28;119827;-72
2022/09/20 08:34:02;;;;;;;8.40;2.27;;;;;;;18.85;54.61;102285.22;4867947;28;124000;-72
2022/09/20 08:36:31;;;;;;;9.20;2.40;;;;;;;18.86;54.80;102286.94;4870155;28;124275;-72
2022/09/20 08:39:06;;;;;;;5.05;2.10;;;;;;;18.88;54.52;102283.31;4870769;28;119330;-72
2022/09/20 08:42:01;;;;;;;8.57;2.00;;;;;;;18.90;54.27;102292.13;4871446;28;119162;-72
2022/09/20 08:44:34;;;;;;;6.82;2.33;;;;;;;18.89;54.35;102295.75;4881350;28;124683;-72
2022/09/20 08:47:08;;;;;;;5.38;2.28;;;;;;;18.88;54.25;102291.34;4869622;28;124174;-72
2022/09/20 08:49:36;;;;;;;6.25;2.00;;;;;;;18.89;54.12;102295.75;4882335;28;118951;-71
2022/09/20 08:52:04;;;;;;;8.43;2.25;;;;;;;18.90;54.10;102297.50;4871016;28;118970;-71
2022/09/20 08:54:36;;;;;;;4.63;1.77;;;;;;;18.89;53.83;102301.97;4868362;28;123999;-71
2022/09/20 08:57:13;;;;;;;8.60;2.10;;;;;;;18.86;53.58;102303.03;4869734;28;124193;-71
2022/09/20 08:59:40;;;;;;;5.10;1.90;;;;;;;18.86;53.35;102300.34;4881507;28;119414;-71
2022/09/20 09:02:18;;;;;;;4.72;1.80;;;;;;;18.87;53.64;102303.88;4870697;28;119796;-71
2022/09/20 09:04:48;;;;;;;6.50;2.20;;;;;;;18.98;53.68;102316.72;4866411;28;123814;-71
2022/09/20 09:07:20;;;;;;;9.98;2.10;;;;;;;19.05;53.62;102312.72;4882931;28;123622;-72
2022/09/20 09:09:51;;;;;;;4.97;1.60;;;;;;;19.11;53.12;102312.38;4867072;28;119965;-71
2022/09/20 09:12:27;;;;;;;8.40;1.38;;;;;;;19.16;53.02;102315.66;4869684;28;119774;-71
2022/09/20 09:15:04;;;;;;;5.03;1.48;;;;;;;19.22;52.61;102315.31;4870325;28;124833;-71
2022/09/20 09:17:32;;;;;;;6.07;1.45;;;;;;;19.26;52.56;102311.47;4861926;28;123808;-71
2022/09/20 09:20:14;;;;;;;6.78;1.55;;;;;;;19.30;52.78;102314.00;4874727;28;120277;-71
2022/09/20 09:22:44;;;;;;;5.03;1.42;;;;;;;19.33;52.43;102316.50;4856354;28;119831;-70
2022/09/20 09:25:17;;;;;;;5.03;1.60;;;;;;;19.35;52.35;102317.28;4887855;28;123452;-71
2022/09/20 09:27:56;;;;;;;6.10;1.65;;;;;;;19.35;52.27;102311.91;4879622;28;124115;-71
2022/09/20 09:30:31;;;;;;;7.30;1.52;;;;;;;19.33;51.78;102316.50;4873852;28;119953;-71
2022/09/20 09:33:24;;;;;;;7.43;1.85;;;;;;;19.24;51.40;102321.44;4855385;28;119059;-71
2022/09/20 09:35:54;;;;;;;7.40;1.40;;;;;;;19.17;51.26;102317.38;4885767;28;123769;-71
2022/09/20 09:38:23;;;;;;;6.32;1.30;;;;;;;19.09;51.39;102325.03;4883355;28;124031;-72
2022/09/20 09:40:53;;;;;;;4.85;1.17;;;;;;;19.04;51.16;102321.72;4872282;28;119671;-71
2022/09/20 09:43:27;;;;;;;5.18;1.35;;;;;;;18.97;51.01;102325.75;4870220;28;119351;-70
2022/09/20 09:46:14;;;;;;;7.25;1.30;;;;;;;18.86;51.15;102324.50;4867959;28;124040;-70
2022/09/20 09:48:41;;;;;;;5.93;1.20;;;;;;;18.78;51.42;102328.53;4863097;28;123108;-70
2022/09/20 09:51:14;;;;;;;6.10;1.50;;;;;;;18.70;51.44;102339.69;4870494;28;120150;-70
2022/09/20 09:53:42;;;;;;;6.35;1.58;;;;;;;18.63;51.57;102332.97;4862377;28;119356;-70
2022/09/20 09:56:35;;;;;;;4.50;1.30;;;;;;;18.53;51.69;102334.41;4887990;28;125105;-70
2022/09/20 09:59:31;;;;;;;5.80;1.30;;;;;;;18.46;51.56;102332.06;4871338;28;122997;-69
2022/09/20 10:02:05;;;;;;;5.55;1.40;;;;;;;18.38;51.98;102339.66;4883712;28;119414;-70
2022/09/20 10:04:58;;;;;;;5.18;1.10;;;;;;;18.34;51.97;102348.81;4892173;28;119355;-70
2022/09/20 10:07:40;;;;;;;5.22;1.30;;;;;;;18.31;52.44;102346.31;4862190;28;124042;-70
2022/09/20 10:10:38;;;;;;;4.60;1.38;;;;;;;18.27;52.08;102347.41;4875448;28;123227;-70
2022/09/20 10:13:19;;;;;;;4.15;0.93;;;;;;;18.23;52.55;102345.84;4866991;28;120052;-70
2022/09/20 10:15:59;;;;;;;6.10;1.20;;;;;;;18.19;52.30;102344.28;4883402;28;119464;-71
2022/09/20 10:18:26;;;;;;;5.50;0.90;;;;;;;18.19;52.55;102352.31;4868642;28;124204;-71
2022/09/20 10:21:13;;;;;;;5.22;0.93;;;;;;;18.17;52.96;102352.41;4868125;28;123681;-71
2022/09/20 10:24:12;;;;;;;7.63;1.08;;;;;;;18.15;52.96;102348.06;4866859;28;119244;-71
2022/09/20 10:27:23;;;;;;;2.95;0.90;;;;;;;18.14;52.90;102346.31;4867834;28;119144;-70
2022/09/20 10:30:09;;;;;;;5.97;1.38;;;;;;;18.16;53.14;102342.63;4866507;28;124599;-71
2022/09/20 10:32:44;;;;;;;3.67;0.93;;;;;;;18.23;53.31;102340.47;4868213;28;124748;-71
2022/09/20 10:35:39;;;;;;;3.38;0.82;;;;;;;18.28;52.65;102344.66;4873410;28;119766;-71
2022/09/20 10:38:18;;;;;;;3.97;0.90;;;;;;;18.33;52.83;102335.47;4868122;28;118848;-71
2022/09/20 10:44:15;;;;;;;3.80;0.70;;;;;;;18.40;52.26;102336.88;4859240;28;124615;-71
2022/09/20 10:46:51;;;;;;;3.53;0.68;;;;;;;18.45;51.99;102334.81;4866906;28;118646;-71
2022/09/20 10:49:22;;;;;;;1.52;0.63;;;;;;;18.48;51.69;102335.53;4869534;28;119094;-71
2022/09/20 10:52:08;;;;;;;3.78;0.77;;;;;;;18.53;51.57;102335.25;4887885;28;124910;-71
2022/09/20 10:54:52;;;;;;;2.95;0.80;;;;;;;18.58;51.51;102329.66;4886557;28;124762;-70
2022/09/20 10:57:47;;;;;;;3.70;0.80;;;;;;;18.64;51.60;102337.38;4868152;28;120351;-71
2022/09/20 11:00:22;;;;;;;4.82;1.10;;;;;;;18.68;51.48;102330.88;4883295;28;119154;-71
2022/09/20 11:03:02;;;;;;;;;;;;;;;18.71;51.90;102340.59;4881737;28;124100;-71
2022/09/20 11:05:40;;;;;;;4.95;1.10;;;;;;;18.76;51.49;102339.38;4878038;28;123822;-71
2022/09/20 11:08:14;;;;;;;6.38;0.85;;;;;;;18.80;51.36;102334.72;4890904;28;120777;-71
2022/09/20 11:10:59;;;;;;;2.33;1.00;;;;;;;18.86;51.42;102340.63;4866465;28;119605;-71
2022/09/20 11:13:51;;;;;;;2.50;0.90;;;;;;;18.95;51.55;102341.03;4875426;28;124216;-71
2022/09/20 11:16:43;;;;;;;4.03;1.00;;;;;;;19.01;51.69;102343.41;4882755;28;123712;-71
2022/09/20 11:19:25;;;;;;;4.57;0.90;;;;;;;19.10;51.59;102342.00;4874707;28;119281;-69
2022/09/20 11:22:12;;;;;;;5.78;1.00;;;;;;;19.22;51.49;102358.28;4882832;28;118519;-72
2022/09/20 11:24:46;;;;;;;3.35;0.80;;;;;;;19.32;50.88;102347.84;4890692;28;123161;-71
2022/09/20 11:27:22;;;;;;;5.63;1.00;;;;;;;19.40;50.55;102336.66;4877545;28;124172;-71
2022/09/20 11:30:04;;;;;;;5.57;0.93;;;;;;;19.45;50.36;102337.25;4872823;28;118951;-71
2022/09/20 11:32:36;;;;;;;2.25;0.70;;;;;;;19.52;50.12;102340.47;4866977;28;119300;-71
2022/09/20 11:35:09;;;;;;;3.78;0.90;;;;;;;19.56;50.08;102350.09;4874156;28;124506;-70
2022/09/20 11:37:43;;;;;;;2.50;0.73;;;;;;;19.61;49.74;102348.84;4873713;28;124576;-71
2022/09/20 11:40:18;;;;;;;8.18;1.10;;;;;;;19.65;49.39;102350.41;4870689;28;120425;-71
2022/09/20 11:42:46;;;;;;;4.85;1.00;;;;;;;19.69;48.78;102350.22;4869696;28;119434;-71
2022/09/20 11:45:14;;;;;;;4.22;0.93;;;;;;;19.70;48.12;102346.56;4871388;28;123315;-71
2022/09/20 11:47:55;;;;;;;2.50;0.73;;;;;;;19.72;47.55;102350.03;4869609;28;123748;-71
2022/09/20 11:50:33;;;;;;;3.58;0.90;;;;;;;19.74;47.19;102353.50;4873519;28;119237;-71
2022/09/20 11:53:24;;;;;;;2.92;0.90;;;;;;;19.73;47.48;102351.81;4883650;28;119517;-75
2022/09/20 11:56:00;;;;;;;5.53;0.93;;;;;;;19.73;47.23;102354.50;4868306;28;124237;-71
2022/09/20 11:58:27;;;;;;;5.85;0.90;;;;;;;19.72;46.85;102350.03;4866782;28;124660;-71
2022/09/20 12:00:57;;;;;;;3.47;0.70;;;;;;;19.71;46.72;102348.31;4886671;28;119841;-71
2022/09/20 12:03:29;;;;;;;3.47;0.80;;;;;;;19.71;46.47;102342.94;4872185;28;121777;-71
2022/09/20 12:06:19;;;;;;;2.28;0.80;;;;;;;19.71;46.45;102351.84;4867891;28;124602;-71
2022/09/20 12:08:51;;;;;;;6.30;1.00;;;;;;;19.72;46.63;102350.03;4880968;28;124614;-71
2022/09/20 12:11:29;;;;;;;5.10;0.73;;;;;;;19.75;46.62;102355.25;4865780;28;119591;-71
2022/09/20 12:14:16;;;;;;;3.63;0.80;;;;;;;19.77;46.52;102342.59;4868863;28;119659;-70
2022/09/20 12:16:46;;;;;;;4.40;0.70;;;;;;;19.83;46.45;102347.59;4868787;28;124234;-71
2022/09/20 12:19:35;;;;;;;5.38;0.93;;;;;;;19.87;46.60;102332.13;4868512;28;125001;-71
2022/09/20 12:22:05;;;;;;;3.20;0.70;;;;;;;19.90;46.70;102327.44;4871025;28;119100;-71
2022/09/20 12:24:35;;;;;;;3.83;0.73;;;;;;;19.95;46.77;102330.72;4863239;28;119521;-71
2022/09/20 12:27:21;;;;;;;2.65;0.80;;;;;;;19.99;45.98;102326.88;4870632;28;125788;-71
2022/09/20 12:30:09;;;;;;;6.30;0.95;;;;;;;20.01;45.57;102335.72;4865582;28;122972;-71